sensor_id;sensor_type;location;lat;lon;timestamp;temperature;humidity
26641;DHT22;14269;47.358;0.724;2023-03-03T00:01:00;6.0;57.0
26641;DHT22;14269;47.358;0.724;2023-03-03T00:03:33;6.0;57.0
26641;DHT22;14269;47.358;0.724;2023-03-03T00:06:05;6.0;57.0
26641;DHT22;14269;47.358;0.724;2023-03-03T00:08:45;5.0;58.0
26641;DHT22;14269;47.358;0.724;2023-03-03T00:11:17;6.0;58.0
26641;DHT22;14269;47.358;0.724;2023-03-03T00:13:51;6.0;57.0
26641;DHT22;14269;47.358;0.724;2023-03-03T00:16:34;6.0;58.0
26641;DHT22;14269;47.358;0.724;2023-03-03T00:19:14;6.0;57.0
26641;DHT22;14269;47.358;0.724;2023-03-03T00:21:56;6.0;58.0
26641;DHT22;14269;47.358;0.724;2023-03-03T00:24:36;6.0;57.0
26641;DHT22;14269;47.358;0.724;2023-03-03T00:27:16;6.0;57.0
26641;DHT22;14269;47.358;0.724;2023-03-03T00:29:52;6.0;57.0
26641;DHT22;14269;47.358;0.724;2023-03-03T00:32:40;6.0;57.0
26641;DHT22;14269;47.358;0.724;2023-03-03T00:35:25;6.0;57.0
26641;DHT22;14269;47.358;0.724;2023-03-03T00:38:13;6.0;57.0
26641;DHT22;14269;47.358;0.724;2023-03-03T00:40:47;6.0;57.0
26641;DHT22;14269;47.358;0.724;2023-03-03T00:43:20;6.0;57.0
26641;DHT22;14269;47.358;0.724;2023-03-03T00:46:00;6.0;58.0
26641;DHT22;14269;47.358;0.724;2023-03-03T00:48:42;6.0;57.0
26641;DHT22;14269;47.358;0.724;2023-03-03T00:51:26;6.0;57.0
26641;DHT22;14269;47.358;0.724;2023-03-03T00:54:05;6.0;57.0
26641;DHT22;14269;47.358;0.724;2023-03-03T00:56:37;6.0;58.0
26641;DHT22;14269;47.358;0.724;2023-03-03T00:59:08;6.0;57.0
26641;DHT22;14269;47.358;0.724;2023-03-03T01:01:40;6.0;57.0
26641;DHT22;14269;47.358;0.724;2023-03-03T01:04:11;6.0;57.0
26641;DHT22;14269;47.358;0.724;2023-03-03T01:06:43;6.0;58.0
26641;DHT22;14269;47.358;0.724;2023-03-03T01:09:15;6.0;58.0
26641;DHT22;14269;47.358;0.724;2023-03-03T01:11:46;6.0;59.0
26641;DHT22;14269;47.358;0.724;2023-03-03T01:14:18;6.0;60.0
26641;DHT22;14269;47.358;0.724;2023-03-03T01:16:50;6.0;60.0
26641;DHT22;14269;47.358;0.724;2023-03-03T01:19:21;6.0;60.0
26641;DHT22;14269;47.358;0.724;2023-03-03T01:21:53;6.0;60.0
26641;DHT22;14269;47.358;0.724;2023-03-03T01:24:25;6.0;60.0
26641;DHT22;14269;47.358;0.724;2023-03-03T01:26:56;6.0;60.0
26641;DHT22;14269;47.358;0.724;2023-03-03T01:29:28;6.0;59.0
26641;DHT22;14269;47.358;0.724;2023-03-03T01:32:00;6.0;60.0
26641;DHT22;14269;47.358;0.724;2023-03-03T01:34:31;6.0;60.0
26641;DHT22;14269;47.358;0.724;2023-03-03T01:37:03;6.0;60.0
26641;DHT22;14269;47.358;0.724;2023-03-03T01:39:35;6.0;60.0
26641;DHT22;14269;47.358;0.724;2023-03-03T01:42:07;6.0;59.0
26641;DHT22;14269;47.358;0.724;2023-03-03T01:44:48;6.0;59.0
26641;DHT22;14269;47.358;0.724;2023-03-03T01:47:21;6.0;60.0
26641;DHT22;14269;47.358;0.724;2023-03-03T01:50:04;6.0;60.0
26641;DHT22;14269;47.358;0.724;2023-03-03T01:52:45;6.0;60.0
26641;DHT22;14269;47.358;0.724;2023-03-03T01:55:29;6.0;60.0
26641;DHT22;14269;47.358;0.724;2023-03-03T01:58:10;6.0;60.0
26641;DHT22;14269;47.358;0.724;2023-03-03T02:00:50;6.0;60.0
26641;DHT22;14269;47.358;0.724;2023-03-03T02:03:31;6.0;61.0
26641;DHT22;14269;47.358;0.724;2023-03-03T02:06:13;6.0;60.0
26641;DHT22;14269;47.358;0.724;2023-03-03T02:08:59;6.0;61.0
26641;DHT22;14269;47.358;0.724;2023-03-03T02:11:37;6.0;60.0
26641;DHT22;14269;47.358;0.724;2023-03-03T02:14:18;6.0;60.0
26641;DHT22;14269;47.358;0.724;2023-03-03T02:16:49;6.0;61.0
26641;DHT22;14269;47.358;0.724;2023-03-03T02:19:25;6.0;60.0
26641;DHT22;14269;47.358;0.724;2023-03-03T02:22:02;6.0;60.0
26641;DHT22;14269;47.358;0.724;2023-03-03T02:24:38;6.0;61.0
26641;DHT22;14269;47.358;0.724;2023-03-03T02:27:16;6.0;61.0
26641;DHT22;14269;47.358;0.724;2023-03-03T02:29:47;6.0;61.0
26641;DHT22;14269;47.358;0.724;2023-03-03T02:32:19;6.0;61.0
26641;DHT22;14269;47.358;0.724;2023-03-03T02:34:51;6.0;61.0
26641;DHT22;14269;47.358;0.724;2023-03-03T02:37:22;6.0;61.0
26641;DHT22;14269;47.358;0.724;2023-03-03T02:39:54;6.0;62.0
26641;DHT22;14269;47.358;0.724;2023-03-03T02:42:28;6.0;61.0
26641;DHT22;14269;47.358;0.724;2023-03-03T02:45:08;6.0;61.0
26641;DHT22;14269;47.358;0.724;2023-03-03T02:47:39;6.0;61.0
26641;DHT22;14269;47.358;0.724;2023-03-03T02:50:11;6.0;61.0
26641;DHT22;14269;47.358;0.724;2023-03-03T02:52:42;6.0;61.0
26641;DHT22;14269;47.358;0.724;2023-03-03T02:55:14;6.0;61.0
26641;DHT22;14269;47.358;0.724;2023-03-03T02:57:45;6.0;61.0
26641;DHT22;14269;47.358;0.724;2023-03-03T03:00:17;6.0;61.0
26641;DHT22;14269;47.358;0.724;2023-03-03T03:02:49;6.0;61.0
26641;DHT22;14269;47.358;0.724;2023-03-03T03:05:20;6.0;61.0
26641;DHT22;14269;47.358;0.724;2023-03-03T03:07:52;6.0;61.0
26641;DHT22;14269;47.358;0.724;2023-03-03T03:10:24;6.0;61.0
26641;DHT22;14269;47.358;0.724;2023-03-03T03:12:55;6.0;60.0
26641;DHT22;14269;47.358;0.724;2023-03-03T03:15:27;6.0;61.0
26641;DHT22;14269;47.358;0.724;2023-03-03T03:17:59;6.0;61.0
26641;DHT22;14269;47.358;0.724;2023-03-03T03:20:30;6.0;60.0
26641;DHT22;14269;47.358;0.724;2023-03-03T03:23:02;6.0;61.0
26641;DHT22;14269;47.358;0.724;2023-03-03T03:25:34;6.0;61.0
26641;DHT22;14269;47.358;0.724;2023-03-03T03:28:05;6.0;61.0
26641;DHT22;14269;47.358;0.724;2023-03-03T03:30:37;6.0;61.0
26641;DHT22;14269;47.358;0.724;2023-03-03T03:33:09;6.0;61.0
26641;DHT22;14269;47.358;0.724;2023-03-03T03:35:44;6.0;61.0
26641;DHT22;14269;47.358;0.724;2023-03-03T03:38:23;6.0;61.0
26641;DHT22;14269;47.358;0.724;2023-03-03T03:40:54;6.0;61.0
26641;DHT22;14269;47.358;0.724;2023-03-03T03:43:25;6.0;61.0
26641;DHT22;14269;47.358;0.724;2023-03-03T03:45:57;7.0;61.0
26641;DHT22;14269;47.358;0.724;2023-03-03T03:48:28;7.0;61.0
26641;DHT22;14269;47.358;0.724;2023-03-03T03:51:00;7.0;61.0
26641;DHT22;14269;47.358;0.724;2023-03-03T03:53:32;7.0;61.0
26641;DHT22;14269;47.358;0.724;2023-03-03T03:56:04;7.0;61.0
26641;DHT22;14269;47.358;0.724;2023-03-03T03:58:35;6.0;61.0
26641;DHT22;14269;47.358;0.724;2023-03-03T04:01:07;6.0;62.0
26641;DHT22;14269;47.358;0.724;2023-03-03T04:03:38;7.0;61.0
26641;DHT22;14269;47.358;0.724;2023-03-03T04:06:10;6.0;62.0
26641;DHT22;14269;47.358;0.724;2023-03-03T04:08:42;7.0;61.0
26641;DHT22;14269;47.358;0.724;2023-03-03T04:11:13;7.0;62.0
26641;DHT22;14269;47.358;0.724;2023-03-03T04:13:45;6.0;62.0
26641;DHT22;14269;47.358;0.724;2023-03-03T04:16:17;6.0;62.0
26641;DHT22;14269;47.358;0.724;2023-03-03T04:18:48;7.0;61.0
26641;DHT22;14269;47.358;0.724;2023-03-03T04:21:20;6.0;62.0
26641;DHT22;14269;47.358;0.724;2023-03-03T04:23:52;6.0;62.0
26641;DHT22;14269;47.358;0.724;2023-03-03T04:26:24;7.0;62.0
26641;DHT22;14269;47.358;0.724;2023-03-03T04:29:05;6.0;62.0
26641;DHT22;14269;47.358;0.724;2023-03-03T04:31:37;6.0;62.0
26641;DHT22;14269;47.358;0.724;2023-03-03T04:34:08;6.0;62.0
26641;DHT22;14269;47.358;0.724;2023-03-03T04:36:40;7.0;62.0
26641;DHT22;14269;47.358;0.724;2023-03-03T04:39:12;7.0;61.0
26641;DHT22;14269;47.358;0.724;2023-03-03T04:41:43;6.0;62.0
26641;DHT22;14269;47.358;0.724;2023-03-03T04:44:15;6.0;62.0
26641;DHT22;14269;47.358;0.724;2023-03-03T04:46:47;6.0;62.0
26641;DHT22;14269;47.358;0.724;2023-03-03T04:49:18;6.0;62.0
26641;DHT22;14269;47.358;0.724;2023-03-03T04:51:50;6.0;62.0
26641;DHT22;14269;47.358;0.724;2023-03-03T04:54:21;6.0;62.0
26641;DHT22;14269;47.358;0.724;2023-03-03T04:56:53;6.0;62.0
26641;DHT22;14269;47.358;0.724;2023-03-03T04:59:25;6.0;63.0
26641;DHT22;14269;47.358;0.724;2023-03-03T05:01:56;6.0;62.0
26641;DHT22;14269;47.358;0.724;2023-03-03T05:04:28;6.0;62.0
26641;DHT22;14269;47.358;0.724;2023-03-03T05:07:00;6.0;63.0
26641;DHT22;14269;47.358;0.724;2023-03-03T05:09:31;6.0;62.0
26641;DHT22;14269;47.358;0.724;2023-03-03T05:12:03;6.0;63.0
26641;DHT22;14269;47.358;0.724;2023-03-03T05:14:35;6.0;63.0
26641;DHT22;14269;47.358;0.724;2023-03-03T05:17:06;6.0;62.0
26641;DHT22;14269;47.358;0.724;2023-03-03T05:19:38;6.0;63.0
26641;DHT22;14269;47.358;0.724;2023-03-03T05:22:10;6.0;63.0
26641;DHT22;14269;47.358;0.724;2023-03-03T05:24:42;6.0;63.0
26641;DHT22;14269;47.358;0.724;2023-03-03T05:27:13;6.0;63.0
26641;DHT22;14269;47.358;0.724;2023-03-03T05:29:44;6.0;63.0
26641;DHT22;14269;47.358;0.724;2023-03-03T05:32:16;6.0;63.0
26641;DHT22;14269;47.358;0.724;2023-03-03T05:34:48;6.0;63.0
26641;DHT22;14269;47.358;0.724;2023-03-03T05:37:19;6.0;63.0
26641;DHT22;14269;47.358;0.724;2023-03-03T05:39:51;6.0;64.0
26641;DHT22;14269;47.358;0.724;2023-03-03T05:42:23;6.0;63.0
26641;DHT22;14269;47.358;0.724;2023-03-03T05:44:54;6.0;63.0
26641;DHT22;14269;47.358;0.724;2023-03-03T05:47:26;6.0;63.0
26641;DHT22;14269;47.358;0.724;2023-03-03T05:49:58;6.0;62.0
26641;DHT22;14269;47.358;0.724;2023-03-03T05:52:39;6.0;63.0
26641;DHT22;14269;47.358;0.724;2023-03-03T05:55:11;6.0;63.0
26641;DHT22;14269;47.358;0.724;2023-03-03T05:57:43;6.0;62.0
26641;DHT22;14269;47.358;0.724;2023-03-03T06:00:15;6.0;63.0
26641;DHT22;14269;47.358;0.724;2023-03-03T06:02:56;6.0;62.0
26641;DHT22;14269;47.358;0.724;2023-03-03T06:05:28;6.0;63.0
26641;DHT22;14269;47.358;0.724;2023-03-03T06:07:59;6.0;62.0
26641;DHT22;14269;47.358;0.724;2023-03-03T06:10:31;6.0;63.0
26641;DHT22;14269;47.358;0.724;2023-03-03T06:13:03;6.0;63.0
26641;DHT22;14269;47.358;0.724;2023-03-03T06:15:34;6.0;63.0
26641;DHT22;14269;47.358;0.724;2023-03-03T06:18:06;6.0;63.0
26641;DHT22;14269;47.358;0.724;2023-03-03T06:20:38;6.0;63.0
26641;DHT22;14269;47.358;0.724;2023-03-03T06:23:09;6.0;63.0
26641;DHT22;14269;47.358;0.724;2023-03-03T06:25:41;6.0;63.0
26641;DHT22;14269;47.358;0.724;2023-03-03T06:28:13;6.0;63.0
26641;DHT22;14269;47.358;0.724;2023-03-03T06:30:44;6.0;63.0
26641;DHT22;14269;47.358;0.724;2023-03-03T06:33:16;6.0;63.0
26641;DHT22;14269;47.358;0.724;2023-03-03T06:35:48;6.0;64.0
26641;DHT22;14269;47.358;0.724;2023-03-03T06:38:19;6.0;63.0
26641;DHT22;14269;47.358;0.724;2023-03-03T06:40:51;6.0;64.0
26641;DHT22;14269;47.358;0.724;2023-03-03T06:43:22;6.0;63.0
26641;DHT22;14269;47.358;0.724;2023-03-03T06:45:54;6.0;63.0
26641;DHT22;14269;47.358;0.724;2023-03-03T06:48:26;6.0;63.0
26641;DHT22;14269;47.358;0.724;2023-03-03T06:50:58;6.0;63.0
26641;DHT22;14269;47.358;0.724;2023-03-03T06:53:39;6.0;64.0
26641;DHT22;14269;47.358;0.724;2023-03-03T06:56:11;6.0;63.0
26641;DHT22;14269;47.358;0.724;2023-03-03T06:58:42;6.0;63.0
26641;DHT22;14269;47.358;0.724;2023-03-03T07:01:16;6.0;64.0
26641;DHT22;14269;47.358;0.724;2023-03-03T07:03:56;6.0;63.0
26641;DHT22;14269;47.358;0.724;2023-03-03T07:06:29;6.0;64.0
26641;DHT22;14269;47.358;0.724;2023-03-03T07:09:17;6.0;63.0
26641;DHT22;14269;47.358;0.724;2023-03-03T07:11:51;6.0;63.0
26641;DHT22;14269;47.358;0.724;2023-03-03T07:14:23;6.0;63.0
26641;DHT22;14269;47.358;0.724;2023-03-03T07:16:57;6.0;63.0
26641;DHT22;14269;47.358;0.724;2023-03-03T07:19:36;6.0;64.0
26641;DHT22;14269;47.358;0.724;2023-03-03T07:22:14;6.0;64.0
26641;DHT22;14269;47.358;0.724;2023-03-03T07:24:51;6.0;64.0
26641;DHT22;14269;47.358;0.724;2023-03-03T07:27:31;6.0;64.0
26641;DHT22;14269;47.358;0.724;2023-03-03T07:30:18;6.0;63.0
26641;DHT22;14269;47.358;0.724;2023-03-03T07:32:56;6.0;64.0
26641;DHT22;14269;47.358;0.724;2023-03-03T07:35:38;6.0;63.0
26641;DHT22;14269;47.358;0.724;2023-03-03T07:38:24;6.0;63.0
26641;DHT22;14269;47.358;0.724;2023-03-03T07:41:02;6.0;63.0
26641;DHT22;14269;47.358;0.724;2023-03-03T07:43:47;6.0;63.0
26641;DHT22;14269;47.358;0.724;2023-03-03T07:46:28;6.0;63.0
26641;DHT22;14269;47.358;0.724;2023-03-03T07:49:21;6.0;64.0
26641;DHT22;14269;47.358;0.724;2023-03-03T07:51:58;6.0;63.0
26641;DHT22;14269;47.358;0.724;2023-03-03T07:54:42;6.0;63.0
26641;DHT22;14269;47.358;0.724;2023-03-03T07:57:23;6.0;62.0
26641;DHT22;14269;47.358;0.724;2023-03-03T08:01:23;6.0;63.0
26641;DHT22;14269;47.358;0.724;2023-03-03T08:04:15;7.0;63.0
26641;DHT22;14269;47.358;0.724;2023-03-03T08:06:49;7.0;62.0
26641;DHT22;14269;47.358;0.724;2023-03-03T08:09:35;7.0;62.0
26641;DHT22;14269;47.358;0.724;2023-03-03T08:13:08;7.0;62.0
26641;DHT22;14269;47.358;0.724;2023-03-03T08:15:44;6.0;62.0
26641;DHT22;14269;47.358;0.724;2023-03-03T08:18:28;6.0;62.0
26641;DHT22;14269;47.358;0.724;2023-03-03T08:21:11;6.0;63.0
26641;DHT22;14269;47.358;0.724;2023-03-03T08:23:50;7.0;62.0
26641;DHT22;14269;47.358;0.724;2023-03-03T08:26:30;7.0;61.0
26641;DHT22;14269;47.358;0.724;2023-03-03T08:29:01;7.0;61.0
26641;DHT22;14269;47.358;0.724;2023-03-03T08:31:33;7.0;61.0
26641;DHT22;14269;47.358;0.724;2023-03-03T08:34:04;7.0;61.0
26641;DHT22;14269;47.358;0.724;2023-03-03T08:36:36;7.0;61.0
26641;DHT22;14269;47.358;0.724;2023-03-03T08:39:09;7.0;61.0
26641;DHT22;14269;47.358;0.724;2023-03-03T08:41:50;8.0;59.0
26641;DHT22;14269;47.358;0.724;2023-03-03T08:44:21;8.0;57.0
26641;DHT22;14269;47.358;0.724;2023-03-03T08:46:53;9.0;58.0
26641;DHT22;14269;47.358;0.724;2023-03-03T08:49:24;9.0;55.0
26641;DHT22;14269;47.358;0.724;2023-03-03T08:51:56;9.0;56.0
26641;DHT22;14269;47.358;0.724;2023-03-03T08:54:29;9.0;54.0
26641;DHT22;14269;47.358;0.724;2023-03-03T08:57:10;9.0;52.0
26641;DHT22;14269;47.358;0.724;2023-03-03T08:59:41;10.0;53.0
26641;DHT22;14269;47.358;0.724;2023-03-03T09:02:13;10.0;53.0
26641;DHT22;14269;47.358;0.724;2023-03-03T09:04:44;10.0;52.0
26641;DHT22;14269;47.358;0.724;2023-03-03T09:07:16;10.0;52.0
26641;DHT22;14269;47.358;0.724;2023-03-03T09:09:48;10.0;52.0
26641;DHT22;14269;47.358;0.724;2023-03-03T09:12:27;10.0;52.0
26641;DHT22;14269;47.358;0.724;2023-03-03T09:15:12;10.0;51.0
26641;DHT22;14269;47.358;0.724;2023-03-03T09:17:54;10.0;51.0
26641;DHT22;14269;47.358;0.724;2023-03-03T09:20:37;11.0;49.0
26641;DHT22;14269;47.358;0.724;2023-03-03T09:23:35;11.0;48.0
26641;DHT22;14269;47.358;0.724;2023-03-03T09:26:21;11.0;49.0
26641;DHT22;14269;47.358;0.724;2023-03-03T09:29:15;11.0;48.0
26641;DHT22;14269;47.358;0.724;2023-03-03T09:31:54;11.0;49.0
26641;DHT22;14269;47.358;0.724;2023-03-03T09:34:38;11.0;49.0
26641;DHT22;14269;47.358;0.724;2023-03-03T09:37:21;11.0;49.0
26641;DHT22;14269;47.358;0.724;2023-03-03T09:39:58;11.0;49.0
26641;DHT22;14269;47.358;0.724;2023-03-03T09:42:39;12.0;47.0
26641;DHT22;14269;47.358;0.724;2023-03-03T09:45:28;11.0;47.0
26641;DHT22;14269;47.358;0.724;2023-03-03T09:48:24;12.0;46.0
26641;DHT22;14269;47.358;0.724;2023-03-03T09:51:15;13.0;43.0
26641;DHT22;14269;47.358;0.724;2023-03-03T09:54:07;12.0;44.0
26641;DHT22;14269;47.358;0.724;2023-03-03T09:56:51;12.0;45.0
26641;DHT22;14269;47.358;0.724;2023-03-03T09:59:40;13.0;44.0
26641;DHT22;14269;47.358;0.724;2023-03-03T10:02:30;14.0;42.0
26641;DHT22;14269;47.358;0.724;2023-03-03T10:05:20;14.0;40.0
26641;DHT22;14269;47.358;0.724;2023-03-03T10:08:09;14.0;41.0
26641;DHT22;14269;47.358;0.724;2023-03-03T10:10:55;13.0;42.0
26641;DHT22;14269;47.358;0.724;2023-03-03T10:13:47;13.0;42.0
26641;DHT22;14269;47.358;0.724;2023-03-03T10:16:43;14.0;42.0
26641;DHT22;14269;47.358;0.724;2023-03-03T10:19:35;14.0;42.0
26641;DHT22;14269;47.358;0.724;2023-03-03T10:22:19;14.0;42.0
26641;DHT22;14269;47.358;0.724;2023-03-03T10:25:07;14.0;42.0
26641;DHT22;14269;47.358;0.724;2023-03-03T10:28:00;15.0;40.0
26641;DHT22;14269;47.358;0.724;2023-03-03T10:30:47;14.0;39.0
26641;DHT22;14269;47.358;0.724;2023-03-03T10:33:39;13.0;42.0
26641;DHT22;14269;47.358;0.724;2023-03-03T10:36:24;13.0;43.0
26641;DHT22;14269;47.358;0.724;2023-03-03T10:39:23;14.0;41.0
26641;DHT22;14269;47.358;0.724;2023-03-03T10:42:09;14.0;40.0
26641;DHT22;14269;47.358;0.724;2023-03-03T10:44:59;14.0;40.0
26641;DHT22;14269;47.358;0.724;2023-03-03T10:47:52;14.0;40.0
26641;DHT22;14269;47.358;0.724;2023-03-03T10:50:44;14.0;40.0
26641;DHT22;14269;47.358;0.724;2023-03-03T10:53:30;15.0;41.0
26641;DHT22;14269;47.358;0.724;2023-03-03T10:56:20;14.0;40.0
26641;DHT22;14269;47.358;0.724;2023-03-03T10:59:11;14.0;41.0
26641;DHT22;14269;47.358;0.724;2023-03-03T11:01:55;14.0;43.0
26641;DHT22;14269;47.358;0.724;2023-03-03T11:04:45;14.0;42.0
26641;DHT22;14269;47.358;0.724;2023-03-03T11:07:28;14.0;41.0
26641;DHT22;14269;47.358;0.724;2023-03-03T11:10:19;14.0;43.0
26641;DHT22;14269;47.358;0.724;2023-03-03T11:13:10;13.0;43.0
26641;DHT22;14269;47.358;0.724;2023-03-03T11:15:58;14.0;41.0
26641;DHT22;14269;47.358;0.724;2023-03-03T11:18:51;14.0;42.0
26641;DHT22;14269;47.358;0.724;2023-03-03T11:21:37;14.0;41.0
26641;DHT22;14269;47.358;0.724;2023-03-03T11:24:26;15.0;38.0
26641;DHT22;14269;47.358;0.724;2023-03-03T11:27:19;16.0;37.0
26641;DHT22;14269;47.358;0.724;2023-03-03T11:30:12;17.0;35.0
26641;DHT22;14269;47.358;0.724;2023-03-03T11:32:56;16.0;36.0
26641;DHT22;14269;47.358;0.724;2023-03-03T11:35:37;16.0;37.0
26641;DHT22;14269;47.358;0.724;2023-03-03T11:38:26;16.0;36.0
26641;DHT22;14269;47.358;0.724;2023-03-03T11:41:12;17.0;35.0
26641;DHT22;14269;47.358;0.724;2023-03-03T11:43:51;17.0;34.0
26641;DHT22;14269;47.358;0.724;2023-03-03T11:46:35;17.0;34.0
26641;DHT22;14269;47.358;0.724;2023-03-03T11:49:18;16.0;38.0
26641;DHT22;14269;47.358;0.724;2023-03-03T11:52:02;17.0;36.0
26641;DHT22;14269;47.358;0.724;2023-03-03T11:54:40;16.0;37.0
26641;DHT22;14269;47.358;0.724;2023-03-03T11:57:20;16.0;38.0
26641;DHT22;14269;47.358;0.724;2023-03-03T12:00:04;16.0;40.0
26641;DHT22;14269;47.358;0.724;2023-03-03T12:03:10;17.0;37.0
26641;DHT22;14269;47.358;0.724;2023-03-03T12:05:56;17.0;36.0
26641;DHT22;14269;47.358;0.724;2023-03-03T12:08:48;17.0;35.0
26641;DHT22;14269;47.358;0.724;2023-03-03T12:11:27;17.0;34.0
26641;DHT22;14269;47.358;0.724;2023-03-03T12:14:17;17.0;37.0
26641;DHT22;14269;47.358;0.724;2023-03-03T12:17:02;17.0;36.0
26641;DHT22;14269;47.358;0.724;2023-03-03T12:19:48;17.0;35.0
26641;DHT22;14269;47.358;0.724;2023-03-03T12:22:34;17.0;36.0
26641;DHT22;14269;47.358;0.724;2023-03-03T12:25:22;16.0;37.0
26641;DHT22;14269;47.358;0.724;2023-03-03T12:28:02;16.0;38.0
26641;DHT22;14269;47.358;0.724;2023-03-03T12:30:58;16.0;39.0
26641;DHT22;14269;47.358;0.724;2023-03-03T12:33:51;16.0;38.0
26641;DHT22;14269;47.358;0.724;2023-03-03T12:36:49;17.0;36.0
26641;DHT22;14269;47.358;0.724;2023-03-03T12:39:35;16.0;38.0
26641;DHT22;14269;47.358;0.724;2023-03-03T12:42:27;17.0;37.0
26641;DHT22;14269;47.358;0.724;2023-03-03T12:45:20;16.0;38.0
26641;DHT22;14269;47.358;0.724;2023-03-03T12:48:07;15.0;39.0
26641;DHT22;14269;47.358;0.724;2023-03-03T12:50:50;15.0;40.0
26641;DHT22;14269;47.358;0.724;2023-03-03T12:53:45;15.0;40.0
26641;DHT22;14269;47.358;0.724;2023-03-03T12:56:30;15.0;41.0
26641;DHT22;14269;47.358;0.724;2023-03-03T12:59:13;15.0;38.0
26641;DHT22;14269;47.358;0.724;2023-03-03T13:02:02;16.0;37.0
26641;DHT22;14269;47.358;0.724;2023-03-03T13:04:44;16.0;37.0
26641;DHT22;14269;47.358;0.724;2023-03-03T13:07:27;16.0;36.0
26641;DHT22;14269;47.358;0.724;2023-03-03T13:10:13;16.0;37.0
26641;DHT22;14269;47.358;0.724;2023-03-03T13:13:00;16.0;39.0
26641;DHT22;14269;47.358;0.724;2023-03-03T13:15:41;16.0;39.0
26641;DHT22;14269;47.358;0.724;2023-03-03T13:18:29;16.0;38.0
26641;DHT22;14269;47.358;0.724;2023-03-03T13:21:16;16.0;40.0
26641;DHT22;14269;47.358;0.724;2023-03-03T13:23:58;15.0;38.0
26641;DHT22;14269;47.358;0.724;2023-03-03T13:26:40;15.0;39.0
26641;DHT22;14269;47.358;0.724;2023-03-03T13:29:23;16.0;38.0
26641;DHT22;14269;47.358;0.724;2023-03-03T13:32:02;16.0;37.0
26641;DHT22;14269;47.358;0.724;2023-03-03T13:34:48;16.0;39.0
26641;DHT22;14269;47.358;0.724;2023-03-03T13:37:26;16.0;38.0
26641;DHT22;14269;47.358;0.724;2023-03-03T13:40:14;15.0;40.0
26641;DHT22;14269;47.358;0.724;2023-03-03T13:42:59;15.0;38.0
26641;DHT22;14269;47.358;0.724;2023-03-03T13:45:50;16.0;39.0
26641;DHT22;14269;47.358;0.724;2023-03-03T13:48:41;16.0;39.0
26641;DHT22;14269;47.358;0.724;2023-03-03T13:51:30;15.0;40.0
26641;DHT22;14269;47.358;0.724;2023-03-03T13:54:11;15.0;39.0
26641;DHT22;14269;47.358;0.724;2023-03-03T13:56:59;15.0;40.0
26641;DHT22;14269;47.358;0.724;2023-03-03T13:59:44;16.0;38.0
26641;DHT22;14269;47.358;0.724;2023-03-03T14:02:46;16.0;38.0
26641;DHT22;14269;47.358;0.724;2023-03-03T14:05:25;16.0;39.0
26641;DHT22;14269;47.358;0.724;2023-03-03T14:08:08;16.0;38.0
26641;DHT22;14269;47.358;0.724;2023-03-03T14:10:53;16.0;39.0
26641;DHT22;14269;47.358;0.724;2023-03-03T14:13:29;16.0;37.0
26641;DHT22;14269;47.358;0.724;2023-03-03T14:16:11;16.0;39.0
26641;DHT22;14269;47.358;0.724;2023-03-03T14:18:54;16.0;38.0
26641;DHT22;14269;47.358;0.724;2023-03-03T14:21:37;16.0;38.0
26641;DHT22;14269;47.358;0.724;2023-03-03T14:24:16;16.0;39.0
26641;DHT22;14269;47.358;0.724;2023-03-03T14:26:57;16.0;39.0
26641;DHT22;14269;47.358;0.724;2023-03-03T14:29:36;16.0;38.0
26641;DHT22;14269;47.358;0.724;2023-03-03T14:32:21;16.0;38.0
26641;DHT22;14269;47.358;0.724;2023-03-03T14:35:14;17.0;37.0
26641;DHT22;14269;47.358;0.724;2023-03-03T14:37:56;17.0;36.0
26641;DHT22;14269;47.358;0.724;2023-03-03T14:40:35;17.0;36.0
26641;DHT22;14269;47.358;0.724;2023-03-03T14:43:22;16.0;37.0
26641;DHT22;14269;47.358;0.724;2023-03-03T14:46:21;16.0;39.0
26641;DHT22;14269;47.358;0.724;2023-03-03T14:49:15;16.0;39.0
26641;DHT22;14269;47.358;0.724;2023-03-03T14:51:50;16.0;38.0
26641;DHT22;14269;47.358;0.724;2023-03-03T14:54:26;16.0;38.0
26641;DHT22;14269;47.358;0.724;2023-03-03T14:57:10;16.0;38.0
26641;DHT22;14269;47.358;0.724;2023-03-03T15:00:25;15.0;40.0
26641;DHT22;14269;47.358;0.724;2023-03-03T15:03:02;16.0;39.0
26641;DHT22;14269;47.358;0.724;2023-03-03T15:05:47;16.0;39.0
26641;DHT22;14269;47.358;0.724;2023-03-03T15:08:29;16.0;39.0
26641;DHT22;14269;47.358;0.724;2023-03-03T15:11:13;16.0;39.0
26641;DHT22;14269;47.358;0.724;2023-03-03T15:14:09;16.0;39.0
26641;DHT22;14269;47.358;0.724;2023-03-03T15:16:47;15.0;40.0
26641;DHT22;14269;47.358;0.724;2023-03-03T15:19:36;16.0;39.0
26641;DHT22;14269;47.358;0.724;2023-03-03T15:22:19;15.0;40.0
26641;DHT22;14269;47.358;0.724;2023-03-03T15:24:59;16.0;39.0
26641;DHT22;14269;47.358;0.724;2023-03-03T15:27:37;16.0;40.0
26641;DHT22;14269;47.358;0.724;2023-03-03T15:30:23;15.0;41.0
26641;DHT22;14269;47.358;0.724;2023-03-03T15:33:02;15.0;41.0
26641;DHT22;14269;47.358;0.724;2023-03-03T15:35:48;15.0;41.0
26641;DHT22;14269;47.358;0.724;2023-03-03T15:38:30;15.0;42.0
26641;DHT22;14269;47.358;0.724;2023-03-03T15:41:21;15.0;41.0
26641;DHT22;14269;47.358;0.724;2023-03-03T15:44:13;15.0;41.0
26641;DHT22;14269;47.358;0.724;2023-03-03T15:46:57;14.0;43.0
26641;DHT22;14269;47.358;0.724;2023-03-03T15:49:50;14.0;43.0
26641;DHT22;14269;47.358;0.724;2023-03-03T15:52:40;14.0;44.0
26641;DHT22;14269;47.358;0.724;2023-03-03T15:55:34;14.0;44.0
26641;DHT22;14269;47.358;0.724;2023-03-03T15:58:25;14.0;44.0
26641;DHT22;14269;47.358;0.724;2023-03-03T16:01:11;14.0;44.0
26641;DHT22;14269;47.358;0.724;2023-03-03T16:03:53;13.0;44.0
26641;DHT22;14269;47.358;0.724;2023-03-03T16:06:39;13.0;45.0
26641;DHT22;14269;47.358;0.724;2023-03-03T16:09:23;13.0;45.0
26641;DHT22;14269;47.358;0.724;2023-03-03T16:12:07;13.0;46.0
26641;DHT22;14269;47.358;0.724;2023-03-03T16:15:25;13.0;47.0
26641;DHT22;14269;47.358;0.724;2023-03-03T16:18:17;13.0;47.0
26641;DHT22;14269;47.358;0.724;2023-03-03T16:21:12;13.0;47.0
26641;DHT22;14269;47.358;0.724;2023-03-03T16:23:53;13.0;47.0
26641;DHT22;14269;47.358;0.724;2023-03-03T16:26:40;12.0;48.0
26641;DHT22;14269;47.358;0.724;2023-03-03T16:29:23;12.0;48.0
26641;DHT22;14269;47.358;0.724;2023-03-03T16:31:59;12.0;48.0
26641;DHT22;14269;47.358;0.724;2023-03-03T16:34:43;12.0;49.0
26641;DHT22;14269;47.358;0.724;2023-03-03T16:37:25;12.0;50.0
26641;DHT22;14269;47.358;0.724;2023-03-03T16:40:09;12.0;51.0
26641;DHT22;14269;47.358;0.724;2023-03-03T16:42:43;12.0;51.0
26641;DHT22;14269;47.358;0.724;2023-03-03T16:45:21;11.0;51.0
26641;DHT22;14269;47.358;0.724;2023-03-03T16:48:11;11.0;51.0
26641;DHT22;14269;47.358;0.724;2023-03-03T16:50:56;11.0;51.0
26641;DHT22;14269;47.358;0.724;2023-03-03T16:53:51;11.0;52.0
26641;DHT22;14269;47.358;0.724;2023-03-03T16:56:36;11.0;52.0
26641;DHT22;14269;47.358;0.724;2023-03-03T16:59:29;11.0;52.0
26641;DHT22;14269;47.358;0.724;2023-03-03T17:02:16;11.0;53.0
26641;DHT22;14269;47.358;0.724;2023-03-03T17:05:03;11.0;53.0
26641;DHT22;14269;47.358;0.724;2023-03-03T17:07:43;11.0;53.0
26641;DHT22;14269;47.358;0.724;2023-03-03T17:10:25;11.0;53.0
26641;DHT22;14269;47.358;0.724;2023-03-03T17:13:15;10.0;53.0
26641;DHT22;14269;47.358;0.724;2023-03-03T17:16:04;11.0;53.0
26641;DHT22;14269;47.358;0.724;2023-03-03T17:18:54;10.0;53.0
26641;DHT22;14269;47.358;0.724;2023-03-03T17:21:36;10.0;53.0
26641;DHT22;14269;47.358;0.724;2023-03-03T17:24:15;10.0;53.0
26641;DHT22;14269;47.358;0.724;2023-03-03T17:26:59;10.0;54.0
26641;DHT22;14269;47.358;0.724;2023-03-03T17:29:41;10.0;54.0
26641;DHT22;14269;47.358;0.724;2023-03-03T17:32:25;10.0;54.0
26641;DHT22;14269;47.358;0.724;2023-03-03T17:35:16;10.0;54.0